createdAt,value
2018-09-25T00:02:31.399Z,81.86
2018-09-25T00:05:05.294Z,81.84
2018-09-25T00:07:38.987Z,82.03
2018-09-25T00:10:12.868Z,81.88
2018-09-25T00:12:46.723Z,81.66
2018-09-25T00:15:20.554Z,81.94
2018-09-25T00:17:54.407Z,82.06
2018-09-25T00:20:28.022Z,82.04
2018-09-25T00:23:01.806Z,82.31
2018-09-25T00:25:35.652Z,82.27
2018-09-25T00:28:09.472Z,82.32
2018-09-25T00:30:43.191Z,82.32
2018-09-25T00:33:16.974Z,82.21
2018-09-25T00:35:50.873Z,82.14
2018-09-25T00:38:24.567Z,82.25
2018-09-25T00:40:58.284Z,82.08
2018-09-25T00:43:31.975Z,82.02
2018-09-25T00:46:05.606Z,81.96
2018-09-25T00:48:39.284Z,82.28
2018-09-25T00:51:13.002Z,81.80
2018-09-25T00:53:46.611Z,81.89
2018-09-25T00:56:20.304Z,82.17
2018-09-25T00:58:53.993Z,82.15
2018-09-25T01:01:27.839Z,82.25
2018-09-25T01:04:01.645Z,82.11
2018-09-25T01:06:35.423Z,81.42
2018-09-25T01:09:09.495Z,82.10
2018-09-25T01:11:43.336Z,82.32
2018-09-25T01:14:17.147Z,82.62
2018-09-25T01:16:50.870Z,82.47
2018-09-25T01:19:24.530Z,82.36
2018-09-25T01:21:58.398Z,82.69
2018-09-25T01:24:32.162Z,82.58
2018-09-25T01:27:05.858Z,82.58
2018-09-25T01:29:39.826Z,82.76
2018-09-25T01:32:13.591Z,82.51
2018-09-25T01:34:47.381Z,82.37
2018-09-25T01:37:21.097Z,82.40
2018-09-25T01:39:55.053Z,82.46
2018-09-25T01:42:28.834Z,82.64
2018-09-25T01:45:02.602Z,82.50
2018-09-25T01:47:36.370Z,82.32
2018-09-25T01:50:10.186Z,82.30
2018-09-25T01:52:43.822Z,82.25
2018-09-25T01:55:17.394Z,82.44
2018-09-25T01:57:51.035Z,82.54
2018-09-25T02:00:24.828Z,82.68
2018-09-25T02:02:58.569Z,82.76
2018-09-25T02:05:32.294Z,82.68
2018-09-25T02:08:06.030Z,82.54
2018-09-25T02:10:39.746Z,82.50
2018-09-25T02:13:13.582Z,82.37
2018-09-25T02:15:47.258Z,82.73
2018-09-25T02:18:21.009Z,82.73
2018-09-25T02:20:54.669Z,82.52
2018-09-25T02:23:28.531Z,82.31
2018-09-25T02:26:02.422Z,82.63
2018-09-25T02:28:36.090Z,82.60
2018-09-25T02:31:09.714Z,82.47
2018-09-25T02:33:43.550Z,82.81
2018-09-25T02:36:17.197Z,82.62
2018-09-25T02:38:51.037Z,82.77
2018-09-25T02:41:24.630Z,82.81
2018-09-25T02:43:58.469Z,83.54
2018-09-25T02:46:32.116Z,83.09
2018-09-25T02:49:05.974Z,83.21
2018-09-25T02:51:39.618Z,83.41
2018-09-25T02:54:13.454Z,83.01
2018-09-25T02:56:47.279Z,83.28
2018-09-25T02:59:21.067Z,83.12
2018-09-25T03:01:54.710Z,82.95
2018-09-25T03:04:28.479Z,83.11
2018-09-25T03:07:02.146Z,83.38
2018-09-25T03:09:35.810Z,83.80
2018-09-25T03:12:09.459Z,83.94
2018-09-25T03:14:43.141Z,84.19
2018-09-25T03:17:16.762Z,84.13
2018-09-25T03:19:50.381Z,84.01
2018-09-25T03:22:23.980Z,84.47
2018-09-25T03:24:57.816Z,84.26
2018-09-25T03:27:31.605Z,84.46
2018-09-25T03:30:05.446Z,84.58
2018-09-25T03:32:39.118Z,84.42
2018-09-25T03:35:12.858Z,84.70
2018-09-25T03:37:46.649Z,84.81
2018-09-25T03:40:20.466Z,84.59
2018-09-25T03:42:54.138Z,84.83
2018-09-25T03:45:27.827Z,84.82
2018-09-25T03:48:01.550Z,85.18
2018-09-25T03:50:35.234Z,85.67
2018-09-25T03:53:09.026Z,84.73
2018-09-25T03:55:42.896Z,85.04
2018-09-25T03:58:16.642Z,84.37
2018-09-25T04:00:50.527Z,85.32
2018-09-25T04:03:24.198Z,85.00
2018-09-25T04:05:58.103Z,85.04
2018-09-25T04:08:31.882Z,84.77
2018-09-25T04:11:05.594Z,85.50
2018-09-25T04:13:39.165Z,85.09
2018-09-25T04:16:13.055Z,85.26
2018-09-25T04:18:46.955Z,85.43
2018-09-25T04:21:20.768Z,85.05
2018-09-25T04:23:54.459Z,84.90
2018-09-25T04:26:28.251Z,85.60
2018-09-25T04:29:01.927Z,85.86
2018-09-25T04:31:35.787Z,85.58
2018-09-25T04:34:09.680Z,85.22
2018-09-25T04:36:43.442Z,85.96
2018-09-25T04:39:17.186Z,85.48
2018-09-25T04:41:50.998Z,85.43
2018-09-25T04:44:24.598Z,85.73
2018-09-25T04:46:58.306Z,85.73
2018-09-25T04:49:32.023Z,85.57
2018-09-25T04:52:05.841Z,86.31
2018-09-25T04:54:39.539Z,85.84
2018-09-25T04:57:13.330Z,85.71
2018-09-25T04:59:47.122Z,85.70
2018-09-25T05:02:20.810Z,86.04
2018-09-25T05:04:54.778Z,85.79
2018-09-25T05:07:28.571Z,85.90
2018-09-25T05:10:02.266Z,86.06
2018-09-25T05:12:35.978Z,86.05
2018-09-25T05:15:09.676Z,86.03
2018-09-25T05:17:43.391Z,86.26
2018-09-25T05:20:17.186Z,86.26
2018-09-25T05:22:50.996Z,86.26
2018-09-25T05:25:24.743Z,86.03
2018-09-25T05:27:58.418Z,86.24
2018-09-25T05:30:32.316Z,86.02
2018-09-25T05:33:06.116Z,85.86
2018-09-25T05:35:39.913Z,85.75
2018-09-25T05:38:13.735Z,85.93
2018-09-25T05:40:47.440Z,85.75
2018-09-25T05:43:21.234Z,85.04
2018-09-25T05:45:54.879Z,85.97
2018-09-25T05:48:28.691Z,85.99
2018-09-25T05:51:02.210Z,85.96
2018-09-25T05:53:35.958Z,85.82
2018-09-25T05:56:09.630Z,85.78
2018-09-25T05:58:43.338Z,85.82
2018-09-25T06:01:17.187Z,85.42
2018-09-25T06:03:50.977Z,85.78
2018-09-25T06:06:24.765Z,85.31
2018-09-25T06:08:58.483Z,85.42
2018-09-25T06:11:32.304Z,85.31
2018-09-25T06:14:06.117Z,85.25
2018-09-25T06:16:39.833Z,84.88
2018-09-25T06:19:13.594Z,85.08
2018-09-25T06:21:47.297Z,84.85
2018-09-25T06:24:20.958Z,84.84
2018-09-25T06:26:54.701Z,84.48
2018-09-25T06:29:28.452Z,84.35
2018-09-25T06:32:02.148Z,84.19
2018-09-25T06:34:36.029Z,84.10
2018-09-25T06:37:09.704Z,83.62
2018-09-25T06:39:43.439Z,83.54
2018-09-25T06:42:17.083Z,83.31
2018-09-25T06:44:50.769Z,82.71
2018-09-25T06:47:24.621Z,82.80
2018-09-25T06:49:58.226Z,82.64
2018-09-25T06:52:32.078Z,82.20
2018-09-25T06:55:05.875Z,82.05
2018-09-25T06:57:39.434Z,81.87
2018-09-25T07:00:13.098Z,81.86
2018-09-25T07:02:46.866Z,81.62
2018-09-25T07:05:20.708Z,81.15
2018-09-25T07:07:54.518Z,80.73
2018-09-25T07:10:28.436Z,80.00
2018-09-25T07:13:01.962Z,80.29
2018-09-25T07:15:35.878Z,80.15
2018-09-25T07:18:09.499Z,80.16
2018-09-25T07:20:43.358Z,79.18
2018-09-25T07:23:17.131Z,79.26
2018-09-25T07:25:50.773Z,79.25
2018-09-25T07:28:24.538Z,78.47
2018-09-25T07:30:58.380Z,78.42
2018-09-25T07:33:32.221Z,77.97
2018-09-25T07:36:06.090Z,77.12
2018-09-25T07:38:39.854Z,77.05
2018-09-25T07:41:13.718Z,77.11
2018-09-25T07:43:47.466Z,77.24
2018-09-25T07:46:21.309Z,76.42
2018-09-25T07:48:55.070Z,75.83
2018-09-25T07:51:28.793Z,75.84
2018-09-25T07:54:02.611Z,75.02
2018-09-25T07:56:36.322Z,75.42
2018-09-25T07:59:09.970Z,74.69
2018-09-25T08:01:43.707Z,75.08
2018-09-25T08:04:17.430Z,74.21
2018-09-25T08:06:51.148Z,73.64
2018-09-25T08:09:24.818Z,73.54
2018-09-25T08:11:58.507Z,73.49
2018-09-25T08:14:32.354Z,73.51
2018-09-25T08:17:06.063Z,72.81
2018-09-25T08:19:39.787Z,73.02
2018-09-25T08:22:13.547Z,71.71
2018-09-25T08:24:47.337Z,71.58
2018-09-25T08:27:21.199Z,71.58
2018-09-25T08:29:54.884Z,70.91
2018-09-25T08:32:28.595Z,70.93
2018-09-25T08:35:02.317Z,70.00
2018-09-25T08:37:36.126Z,70.18
2018-09-25T08:40:09.821Z,70.11
2018-09-25T08:42:43.635Z,69.22
2018-09-25T08:45:17.409Z,69.87
2018-09-25T08:47:51.245Z,69.14
2018-09-25T08:50:24.886Z,69.47
2018-09-25T08:53:06.602Z,69.48
2018-09-25T08:55:40.200Z,68.64
2018-09-25T08:58:13.947Z,68.13
2018-09-25T09:00:47.779Z,68.44
2018-09-25T09:03:21.673Z,68.39
2018-09-25T09:05:55.567Z,68.96
2018-09-25T09:08:29.425Z,68.72
2018-09-25T09:11:03.030Z,67.41
2018-09-25T09:13:37.413Z,66.93
2018-09-25T09:16:11.162Z,66.03
2018-09-25T09:18:45.003Z,65.88
2018-09-25T09:21:18.675Z,64.84
2018-09-25T09:23:52.558Z,63.87
2018-09-25T09:26:26.455Z,64.21
2018-09-25T09:29:00.343Z,64.38
2018-09-25T09:31:33.991Z,63.82
2018-09-25T09:34:07.682Z,62.31
2018-09-25T09:36:41.429Z,62.43
2018-09-25T09:39:15.110Z,61.87
2018-09-25T09:41:49.066Z,61.86
2018-09-25T09:44:22.672Z,61.33
2018-09-25T09:46:56.442Z,60.95
2018-09-25T09:49:30.177Z,60.70
2018-09-25T09:52:04.082Z,60.30
2018-09-25T09:54:37.896Z,59.41
2018-09-25T09:57:11.938Z,59.75
2018-09-25T09:59:45.678Z,58.80
2018-09-25T10:02:19.366Z,57.91
2018-09-25T10:04:53.133Z,56.81
2018-09-25T10:07:26.761Z,57.38
2018-09-25T10:10:00.567Z,57.80
2018-09-25T10:12:34.220Z,58.17
2018-09-25T10:15:08.060Z,56.98
2018-09-25T10:17:41.806Z,56.33
2018-09-25T10:20:15.590Z,55.13
2018-09-25T10:22:49.334Z,56.00
2018-09-25T10:25:23.118Z,55.10
2018-09-25T10:27:56.818Z,54.85
2018-09-25T10:30:30.629Z,54.65
2018-09-25T10:33:04.302Z,54.83
2018-09-25T10:35:37.917Z,54.17
2018-09-25T10:38:11.633Z,52.87
2018-09-25T10:40:45.606Z,52.99
2018-09-25T10:43:19.246Z,52.37
2018-09-25T10:45:53.010Z,50.91
2018-09-25T10:48:26.777Z,50.77
2018-09-25T10:51:00.518Z,50.37
2018-09-25T10:53:34.335Z,50.67
2018-09-25T10:56:08.277Z,49.78
2018-09-25T10:58:41.926Z,49.34
2018-09-25T11:01:15.766Z,49.72
2018-09-25T11:03:49.418Z,48.85
2018-09-25T11:06:23.226Z,48.35
2018-09-25T11:08:56.843Z,47.63
2018-09-25T11:11:30.533Z,47.77
2018-09-25T11:14:04.380Z,47.77
2018-09-25T11:16:38.206Z,48.46
2018-09-25T11:19:11.866Z,48.55
2018-09-25T11:21:45.678Z,48.32
2018-09-25T11:24:19.530Z,48.21
2018-09-25T11:26:53.318Z,48.95
2018-09-25T11:29:26.912Z,48.55
2018-09-25T11:32:00.622Z,47.03
2018-09-25T11:34:34.418Z,45.90
2018-09-25T11:37:08.131Z,44.02
2018-09-25T11:39:41.809Z,43.53
2018-09-25T11:42:15.467Z,43.59
2018-09-25T11:44:49.210Z,43.12
2018-09-25T11:47:23.035Z,42.72
2018-09-25T11:49:56.760Z,41.67
2018-09-25T11:52:30.594Z,42.64
2018-09-25T11:55:04.364Z,41.76
2018-09-25T11:57:38.254Z,41.89
2018-09-25T12:00:12.083Z,41.19
2018-09-25T12:02:45.906Z,40.07
2018-09-25T12:05:19.594Z,41.44
2018-09-25T12:07:53.437Z,41.57
2018-09-25T12:10:27.291Z,42.54
2018-09-25T12:13:01.102Z,42.76
2018-09-25T12:15:34.898Z,42.34
2018-09-25T12:18:08.662Z,42.69
2018-09-25T12:20:42.431Z,41.80
2018-09-25T12:23:16.149Z,38.77
2018-09-25T12:25:49.945Z,38.34
2018-09-25T12:28:23.654Z,37.91
2018-09-25T12:30:57.428Z,39.12
2018-09-25T12:33:31.110Z,39.31
2018-09-25T12:36:04.837Z,39.05
2018-09-25T12:38:38.529Z,40.94
2018-09-25T12:41:12.470Z,40.73
2018-09-25T12:43:46.183Z,40.56
2018-09-25T12:46:19.801Z,40.59
2018-09-25T12:48:53.443Z,40.34
2018-09-25T12:51:27.092Z,40.32
2018-09-25T12:54:00.754Z,41.38
2018-09-25T12:56:34.426Z,42.36
2018-09-25T12:59:08.189Z,40.68
2018-09-25T13:01:41.887Z,40.10
2018-09-25T13:04:15.722Z,40.83
2018-09-25T13:06:49.629Z,39.55
2018-09-25T13:09:23.333Z,38.96
2018-09-25T13:11:57.107Z,37.70
2018-09-25T13:14:30.809Z,38.03
2018-09-25T13:17:04.552Z,38.87
2018-09-25T13:19:38.374Z,39.44
2018-09-25T13:22:12.145Z,40.27
2018-09-25T13:24:45.976Z,39.77
2018-09-25T13:27:19.730Z,39.99
2018-09-25T13:29:53.448Z,40.94
2018-09-25T13:32:27.143Z,40.77
2018-09-25T13:35:01.002Z,39.50
2018-09-25T13:37:34.698Z,39.19
2018-09-25T13:40:08.363Z,38.68
2018-09-25T13:42:42.611Z,39.20
2018-09-25T13:45:16.422Z,39.20
2018-09-25T13:47:50.065Z,39.08
2018-09-25T13:50:23.858Z,38.71
2018-09-25T13:52:57.482Z,38.43
2018-09-25T13:55:31.186Z,38.31
2018-09-25T13:58:04.787Z,36.46
2018-09-25T14:00:38.665Z,36.33
2018-09-25T14:03:12.446Z,36.77
2018-09-25T14:05:46.239Z,36.74
2018-09-25T14:08:19.905Z,37.69
2018-09-25T14:10:53.570Z,37.77
2018-09-25T14:13:27.366Z,38.02
2018-09-25T14:16:01.210Z,38.87
2018-09-25T14:18:35.021Z,38.16
2018-09-25T14:21:08.816Z,37.29
2018-09-25T14:23:42.577Z,36.47
2018-09-25T14:26:16.411Z,37.50
2018-09-25T14:28:50.122Z,37.24
2018-09-25T14:31:23.915Z,36.75
2018-09-25T14:33:57.728Z,35.91
2018-09-25T14:36:31.396Z,37.06
2018-09-25T14:39:05.064Z,36.98
2018-09-25T14:41:38.779Z,36.58
2018-09-25T14:44:12.657Z,37.67
2018-09-25T14:46:46.442Z,37.53
2018-09-25T14:49:20.206Z,37.69
2018-09-25T14:51:53.921Z,38.13
2018-09-25T14:54:27.779Z,39.29
2018-09-25T14:57:01.434Z,38.68
2018-09-25T14:59:35.153Z,38.98
2018-09-25T15:02:08.870Z,39.53
2018-09-25T15:04:42.662Z,39.16
2018-09-25T15:07:16.548Z,39.63
2018-09-25T15:09:50.370Z,39.19
2018-09-25T15:12:24.117Z,39.30
2018-09-25T15:14:57.785Z,39.82
2018-09-25T15:17:31.527Z,40.38
2018-09-25T15:20:05.186Z,40.13
2018-09-25T15:22:38.906Z,40.71
2018-09-25T15:25:13.003Z,41.55
2018-09-25T15:27:46.890Z,41.39
2018-09-25T15:30:20.734Z,41.30
2018-09-25T15:32:54.526Z,42.35
2018-09-25T15:35:28.499Z,42.34
2018-09-25T15:38:02.059Z,43.17
2018-09-25T15:40:35.766Z,43.10
2018-09-25T15:43:09.603Z,42.79
2018-09-25T15:45:43.570Z,43.41
2018-09-25T15:48:17.310Z,43.52
2018-09-25T15:50:50.946Z,43.56
2018-09-25T15:53:24.663Z,43.92
2018-09-25T15:55:58.385Z,43.95
2018-09-25T15:58:32.221Z,44.72
2018-09-25T16:01:06.766Z,45.29
2018-09-25T16:03:40.434Z,45.62
2018-09-25T16:06:14.098Z,45.62
2018-09-25T16:08:47.866Z,45.20
2018-09-25T16:11:21.571Z,45.47
2018-09-25T16:13:55.406Z,46.02
2018-09-25T16:16:29.019Z,46.38
2018-09-25T16:19:02.786Z,46.48
2018-09-25T16:21:36.610Z,46.60
2018-09-25T16:24:10.277Z,46.91
2018-09-25T16:26:43.941Z,47.29
2018-09-25T16:29:17.786Z,47.49
2018-09-25T16:31:51.450Z,46.97
2018-09-25T16:34:25.223Z,48.17
2018-09-25T16:36:58.885Z,48.07
2018-09-25T16:39:32.776Z,49.12
2018-09-25T16:42:06.470Z,48.45
2018-09-25T16:44:40.137Z,48.65
2018-09-25T16:47:14.055Z,47.77
2018-09-25T16:49:47.750Z,47.39
2018-09-25T16:52:21.415Z,47.91
2018-09-25T16:54:55.158Z,47.88
2018-09-25T16:57:28.846Z,47.08
2018-09-25T17:00:02.535Z,48.02
2018-09-25T17:02:36.234Z,47.58
2018-09-25T17:05:09.945Z,47.93
2018-09-25T17:07:43.626Z,48.88
2018-09-25T17:10:17.490Z,48.61
2018-09-25T17:12:51.253Z,49.49
2018-09-25T17:15:25.090Z,49.73
2018-09-25T17:17:58.890Z,49.50
2018-09-25T17:20:32.711Z,50.28
2018-09-25T17:23:06.374Z,50.71
2018-09-25T17:25:40.116Z,51.23
2018-09-25T17:28:13.934Z,50.76
2018-09-25T17:30:47.713Z,51.64
2018-09-25T17:33:21.490Z,51.45
2018-09-25T17:35:55.233Z,51.67
2018-09-25T17:38:29.010Z,51.64
2018-09-25T17:41:02.742Z,52.14
2018-09-25T17:43:36.410Z,52.09
2018-09-25T17:46:10.278Z,52.27
2018-09-25T17:48:44.077Z,52.67
2018-09-25T17:51:17.785Z,53.71
2018-09-25T17:53:51.550Z,54.07
2018-09-25T17:56:25.250Z,54.23
2018-09-25T17:58:58.862Z,54.34
2018-09-25T18:01:32.678Z,54.61
2018-09-25T18:04:06.480Z,54.05
2018-09-25T18:06:40.231Z,54.75
2018-09-25T18:09:14.666Z,54.98
2018-09-25T18:11:48.523Z,55.27
2018-09-25T18:14:22.262Z,55.37
2018-09-25T18:16:55.929Z,55.75
2018-09-25T18:19:29.658Z,56.00
2018-09-25T18:22:03.346Z,56.00
2018-09-25T18:24:37.166Z,56.35
2018-09-25T18:27:11.178Z,56.97
2018-09-25T18:29:44.986Z,57.11
2018-09-25T18:32:18.810Z,57.43
2018-09-25T18:34:52.430Z,57.93
2018-09-25T18:37:26.101Z,57.75
2018-09-25T18:39:59.914Z,57.85
2018-09-25T18:42:33.734Z,58.71
2018-09-25T18:45:07.407Z,59.28
2018-09-25T18:47:41.037Z,58.86
2018-09-25T18:50:14.806Z,59.35
2018-09-25T18:52:48.557Z,59.20
2018-09-25T18:55:22.315Z,60.00
2018-09-25T18:57:56.130Z,59.41
2018-09-25T19:00:29.923Z,59.78
2018-09-25T19:03:03.746Z,60.27
2018-09-25T19:05:37.411Z,60.08
2018-09-25T19:08:11.122Z,60.82
2018-09-25T19:10:44.817Z,60.87
2018-09-25T19:13:18.561Z,60.78
2018-09-25T19:15:52.437Z,60.91
2018-09-25T19:18:26.318Z,61.27
2018-09-25T19:21:00.187Z,61.23
2018-09-25T19:23:33.902Z,61.09
2018-09-25T19:26:08.023Z,61.83
2018-09-25T19:28:41.834Z,61.65
2018-09-25T19:31:15.506Z,61.67
2018-09-25T19:33:49.146Z,62.24
2018-09-25T19:36:22.947Z,62.77
2018-09-25T19:38:56.630Z,63.06
2018-09-25T19:41:30.434Z,63.18
2018-09-25T19:44:04.246Z,63.08
2018-09-25T19:46:38.075Z,63.52
2018-09-25T19:49:11.883Z,64.29
2018-09-25T19:51:45.575Z,64.86
2018-09-25T19:54:19.362Z,64.85
2018-09-25T19:56:53.194Z,65.54
2018-09-25T19:59:26.920Z,65.96
2018-09-25T20:02:00.806Z,67.35
2018-09-25T20:04:34.505Z,67.81
2018-09-25T20:07:08.290Z,67.86
2018-09-25T20:09:42.114Z,67.67
2018-09-25T20:12:15.945Z,68.36
2018-09-25T20:14:49.826Z,68.89
2018-09-25T20:17:24.682Z,68.93
2018-09-25T20:19:58.458Z,69.64
2018-09-25T20:22:32.270Z,69.17
2018-09-25T20:25:06.010Z,69.54
2018-09-25T20:27:39.930Z,70.41
2018-09-25T20:30:13.555Z,70.09
2018-09-25T20:32:47.434Z,69.94
2018-09-25T20:35:21.308Z,70.15
2018-09-25T20:37:55.127Z,70.96
2018-09-25T20:40:28.900Z,70.71
2018-09-25T20:43:02.667Z,71.27
2018-09-25T20:45:36.406Z,70.69
2018-09-25T20:48:10.258Z,70.99
2018-09-25T20:50:44.118Z,71.70
2018-09-25T20:53:17.999Z,71.23
2018-09-25T20:55:51.774Z,71.71
2018-09-25T20:58:25.390Z,72.12
2018-09-25T21:00:59.134Z,71.95
2018-09-25T21:03:32.974Z,72.67
2018-09-25T21:06:06.866Z,72.93
2018-09-25T21:08:40.582Z,72.71
2018-09-25T21:11:14.381Z,72.89
2018-09-25T21:13:48.214Z,73.53
2018-09-25T21:16:21.962Z,73.52
2018-09-25T21:18:55.825Z,73.47
2018-09-25T21:21:29.492Z,73.64
2018-09-25T21:24:03.191Z,73.97
2018-09-25T21:26:36.938Z,73.97
2018-09-25T21:29:10.870Z,73.42
2018-09-25T21:31:44.490Z,73.80
2018-09-25T21:34:18.230Z,74.44
2018-09-25T21:36:51.898Z,74.30
2018-09-25T21:39:25.838Z,73.97
2018-09-25T21:41:59.530Z,74.32
2018-09-25T21:44:33.245Z,74.09
2018-09-25T21:47:07.097Z,73.63
2018-09-25T21:49:40.730Z,73.54
2018-09-25T21:52:14.478Z,73.60
2018-09-25T21:54:48.218Z,74.29
2018-09-25T21:57:22.114Z,74.07
2018-09-25T21:59:55.774Z,74.85
2018-09-25T22:02:29.370Z,74.69
2018-09-25T22:05:03.206Z,74.76
2018-09-25T22:07:37.028Z,75.19
2018-09-25T22:10:10.917Z,75.01
2018-09-25T22:12:44.739Z,74.14
2018-09-25T22:15:18.579Z,74.14
2018-09-25T22:17:52.499Z,73.89
2018-09-25T22:20:26.386Z,73.40
2018-09-25T22:23:00.182Z,73.81
2018-09-25T22:25:33.966Z,73.43
2018-09-25T22:28:07.791Z,73.34
2018-09-25T22:30:41.554Z,73.33
2018-09-25T22:33:15.202Z,73.52
2018-09-25T22:35:48.867Z,73.97
2018-09-25T22:38:23.294Z,73.76
2018-09-25T22:40:56.947Z,73.81
2018-09-25T22:43:30.523Z,73.17
2018-09-25T22:46:04.236Z,74.01
2018-09-25T22:48:38.006Z,73.62
2018-09-25T22:51:11.839Z,73.71
2018-09-25T22:53:45.640Z,73.22
2018-09-25T22:56:19.350Z,72.88
2018-09-25T22:58:53.167Z,72.64
2018-09-25T23:01:27.010Z,72.38
2018-09-25T23:04:00.854Z,71.95
2018-09-25T23:06:34.673Z,72.11
2018-09-25T23:09:08.491Z,72.35
2018-09-25T23:11:42.331Z,72.12
2018-09-25T23:14:15.946Z,72.31
2018-09-25T23:16:49.737Z,72.67
2018-09-25T23:19:23.362Z,71.90
2018-09-25T23:21:57.122Z,72.50
2018-09-25T23:24:30.939Z,72.88
2018-09-25T23:27:04.834Z,73.27
2018-09-25T23:29:38.482Z,73.10
2018-09-25T23:32:12.682Z,74.01
2018-09-25T23:34:46.411Z,74.31
2018-09-25T23:37:20.121Z,74.00
2018-09-25T23:40:00.953Z,74.01
2018-09-25T23:42:35.510Z,74.62
2018-09-25T23:46:11.425Z,74.09
2018-09-25T23:48:59.810Z,74.03
2018-09-25T23:51:36.239Z,74.78
2018-09-25T23:54:10.705Z,74.89
2018-09-25T23:57:42.414Z,75.04
